createdAt,value
2019-04-03T00:00:49.672Z,10.5
2019-04-03T00:01:52.242Z,10.5
2019-04-03T00:02:54.555Z,10.7
2019-04-03T00:03:56.603Z,10.4
2019-04-03T00:04:58.614Z,10.5
2019-04-03T00:06:00.876Z,10.5
2019-04-03T00:07:06.372Z,10.4
2019-04-03T00:08:08.525Z,10.5
2019-04-03T00:09:10.558Z,10.4
2019-04-03T00:10:12.722Z,10.2
2019-04-03T00:11:14.791Z,10.3
2019-04-03T00:12:17.329Z,10.2
2019-04-03T00:13:19.466Z,10.3
2019-04-03T00:14:21.484Z,10.3
2019-04-03T00:15:23.536Z,10.2
2019-04-03T00:16:25.659Z,10.2
2019-04-03T00:17:27.664Z,10.3
2019-04-03T00:18:29.718Z,10.1
2019-04-03T00:19:31.784Z,10.2
2019-04-03T00:20:33.960Z,10.2
2019-04-03T00:21:36.006Z,10.1
2019-04-03T00:22:38.425Z,10.2
2019-04-03T00:23:41.259Z,10
2019-04-03T00:24:43.558Z,10
2019-04-03T00:25:45.991Z,10.1
2019-04-03T00:26:48.029Z,10.1
2019-04-03T00:27:53.605Z,10.1
2019-04-03T00:28:55.639Z,10.1
2019-04-03T00:29:57.646Z,10.2
2019-04-03T00:31:00.095Z,10.1
2019-04-03T00:32:02.517Z,10.1
2019-04-03T00:33:04.989Z,10.1
2019-04-03T00:34:07.068Z,10.2
2019-04-03T00:35:09.172Z,10.1
2019-04-03T00:36:11.465Z,10.1
2019-04-03T00:37:13.518Z,10.1
2019-04-03T00:38:15.672Z,10.1
2019-04-03T00:39:17.733Z,10
2019-04-03T00:40:19.853Z,9.9
2019-04-03T00:41:25.718Z,10.1
2019-04-03T00:42:27.856Z,10.1
2019-04-03T00:43:29.971Z,10
2019-04-03T00:44:32.472Z,10.1
2019-04-03T00:45:34.977Z,10
2019-04-03T00:46:37.092Z,10.1
2019-04-03T00:47:39.395Z,10.1
2019-04-03T00:48:42.042Z,10.1
2019-04-03T00:49:44.138Z,10.1
2019-04-03T00:50:46.185Z,10.1
2019-04-03T00:51:48.489Z,10
2019-04-03T00:52:51.263Z,10
2019-04-03T00:53:53.396Z,10
2019-04-03T00:54:57.941Z,10
2019-04-03T00:55:59.977Z,10.1
2019-04-03T00:57:02.156Z,10
2019-04-03T00:58:04.295Z,10
2019-04-03T00:59:06.567Z,9.9
2019-04-03T01:00:08.631Z,10
2019-04-03T01:01:10.703Z,9.9
2019-04-03T01:02:16.096Z,9.9
2019-04-03T01:03:18.785Z,9.9
2019-04-03T01:04:20.982Z,9.9
2019-04-03T01:05:23.028Z,9.8
2019-04-03T01:06:26.633Z,9.9
2019-04-03T01:07:30.872Z,9.8
2019-04-03T01:08:33.210Z,9.8
2019-04-03T01:09:35.371Z,9.9
2019-04-03T01:10:37.401Z,9.9
2019-04-03T01:11:39.468Z,9.8
2019-04-03T01:12:41.973Z,9.8
2019-04-03T01:13:44.157Z,9.8
2019-04-03T01:14:46.201Z,9.7
2019-04-03T01:15:48.273Z,9.7
2019-04-03T01:16:51.003Z,9.8
2019-04-03T01:17:53.189Z,9.8
2019-04-03T01:18:55.290Z,9.9
2019-04-03T01:19:57.374Z,9.8
2019-04-03T01:20:59.549Z,9.7
2019-04-03T01:22:02.218Z,9.6
2019-04-03T01:23:07.735Z,9.7
2019-04-03T01:24:09.998Z,9.8
2019-04-03T01:25:12.564Z,9.8
2019-04-03T01:26:14.906Z,9.8
2019-04-03T01:27:16.925Z,9.6
2019-04-03T01:28:18.963Z,9.8
2019-04-03T01:29:21.117Z,9.7
2019-04-03T01:30:23.629Z,9.7
2019-04-03T01:31:25.971Z,9.7
2019-04-03T01:32:28.209Z,9.8
2019-04-03T01:33:30.248Z,9.7
2019-04-03T01:34:32.498Z,9.7
2019-04-03T01:35:34.903Z,9.7
2019-04-03T01:36:37.013Z,9.6
2019-04-03T01:37:39.342Z,9.7
2019-04-03T01:38:41.668Z,9.6
2019-04-03T01:39:43.781Z,9.6
2019-04-03T01:40:45.895Z,9.7
2019-04-03T01:41:48.078Z,9.7
2019-04-03T01:42:53.982Z,9.7
2019-04-03T01:43:56.130Z,9.7
2019-04-03T01:44:58.293Z,9.7
2019-04-03T01:46:00.745Z,9.8
2019-04-03T01:47:02.774Z,9.8
2019-04-03T01:48:05.036Z,9.7
2019-04-03T01:49:07.185Z,9.7
2019-04-03T01:50:09.227Z,9.7
2019-04-03T01:51:11.339Z,9.7
2019-04-03T01:52:13.674Z,9.8
2019-04-03T01:53:16.111Z,9.8
2019-04-03T01:54:18.138Z,9.7
2019-04-03T01:55:20.395Z,9.7
2019-04-03T01:56:22.623Z,9.8
2019-04-03T01:57:24.835Z,9.8
2019-04-03T01:58:27.020Z,9.6
2019-04-03T01:59:29.548Z,9.8
2019-04-03T02:00:31.630Z,9.8
2019-04-03T02:01:34.051Z,9.7
2019-04-03T02:02:39.956Z,9.8
2019-04-03T02:03:43.315Z,9.8
2019-04-03T02:04:45.557Z,9.9
2019-04-03T02:05:47.596Z,9.9
2019-04-03T02:06:49.692Z,9.8
2019-04-03T02:07:51.817Z,9.8
2019-04-03T02:08:53.907Z,9.8
2019-04-03T02:09:56.143Z,9.8
2019-04-03T02:10:58.315Z,9.9
2019-04-03T02:12:00.708Z,9.9
2019-04-03T02:13:02.983Z,9.8
2019-04-03T02:14:05.698Z,9.8
2019-04-03T02:15:07.833Z,9.9
2019-04-03T02:16:09.988Z,9.9
2019-04-03T02:17:12.461Z,9.9
2019-04-03T02:18:14.567Z,9.9
2019-04-03T02:19:16.678Z,9.9
2019-04-03T02:20:18.697Z,9.9
2019-04-03T02:21:21.055Z,9.9
2019-04-03T02:22:23.411Z,10
2019-04-03T02:23:25.624Z,9.9
2019-04-03T02:24:27.770Z,9.9
2019-04-03T02:25:33.523Z,9.9
2019-04-03T02:26:35.688Z,9.9
2019-04-03T02:27:37.888Z,10
2019-04-03T02:28:40.307Z,9.9
2019-04-03T02:29:42.402Z,10
2019-04-03T02:30:48.409Z,10
2019-04-03T02:31:54.586Z,9.9
2019-04-03T02:32:59.196Z,10
2019-04-03T02:34:04.210Z,9.9
2019-04-03T02:35:09.617Z,9.9
2019-04-03T02:36:14.462Z,10
2019-04-03T02:37:19.159Z,9.8
2019-04-03T02:38:24.686Z,9.9
2019-04-03T02:39:29.405Z,9.9
2019-04-03T02:40:34.912Z,10
2019-04-03T02:41:39.210Z,9.9
2019-04-03T02:42:43.722Z,9.9
2019-04-03T02:43:48.877Z,10
2019-04-03T02:44:54.156Z,9.9
2019-04-03T02:45:58.692Z,9.9
2019-04-03T02:47:03.512Z,9.9
2019-04-03T02:48:08.797Z,10
2019-04-03T02:49:12.513Z,9.9
2019-04-03T02:50:16.682Z,9.9
2019-04-03T02:51:21.578Z,9.9
2019-04-03T02:52:26.832Z,9.9
2019-04-03T02:53:32.320Z,10
2019-04-03T02:54:38.351Z,10
2019-04-03T02:55:42.172Z,9.8
2019-04-03T02:56:47.427Z,9.9
2019-04-03T02:57:51.205Z,9.9
2019-04-03T02:58:56.627Z,9.9
2019-04-03T03:00:02.903Z,9.9
2019-04-03T03:01:09.000Z,9.9
2019-04-03T03:02:15.252Z,10
2019-04-03T03:03:19.753Z,10
2019-04-03T03:04:23.398Z,10
2019-04-03T03:05:30.286Z,9.9
2019-04-03T03:06:34.831Z,10
2019-04-03T03:07:38.373Z,10.1
2019-04-03T03:08:43.755Z,10
2019-04-03T03:09:49.587Z,10
2019-04-03T03:10:55.525Z,10
2019-04-03T03:11:58.269Z,9.9
2019-04-03T03:13:04.161Z,9.9
2019-04-03T03:14:09.614Z,10
2019-04-03T03:15:13.980Z,10
2019-04-03T03:16:20.198Z,10.1
2019-04-03T03:17:25.152Z,10
2019-04-03T03:18:29.950Z,9.9
2019-04-03T03:19:35.462Z,9.8
2019-04-03T03:20:41.937Z,10
2019-04-03T03:21:47.611Z,10
2019-04-03T03:22:52.509Z,9.9
2019-04-03T03:23:58.357Z,9.9
2019-04-03T03:25:03.860Z,10.1
2019-04-03T03:26:07.892Z,10
2019-04-03T03:27:11.534Z,10
2019-04-03T03:28:17.178Z,9.9
2019-04-03T03:29:28.822Z,10
2019-04-03T03:31:08.325Z,9.9
2019-04-03T03:32:38.566Z,10
2019-04-03T03:33:45.501Z,9.9
2019-04-03T03:35:44.322Z,10
2019-04-03T03:37:04.720Z,10
2019-04-03T03:38:09.835Z,10
2019-04-03T03:39:14.174Z,10
2019-04-03T03:40:18.562Z,9.9
2019-04-03T03:41:25.612Z,9.9
2019-04-03T03:42:33.778Z,9.9
2019-04-03T03:43:40.249Z,9.8
2019-04-03T03:44:48.147Z,9.9
2019-04-03T03:45:55.173Z,9.9
2019-04-03T03:47:04.051Z,9.9
2019-04-03T03:48:12.387Z,9.9
2019-04-03T03:49:19.642Z,9.8
2019-04-03T03:50:27.140Z,9.8
2019-04-03T03:51:33.785Z,10
2019-04-03T03:52:40.844Z,9.9
2019-04-03T03:53:48.237Z,9.9
2019-04-03T03:54:53.956Z,10
2019-04-03T03:56:01.260Z,10
2019-04-03T03:57:09.984Z,10.1
2019-04-03T03:58:15.350Z,10.1
2019-04-03T03:59:20.553Z,10.2
2019-04-03T04:00:26.460Z,10.1
2019-04-03T04:01:33.875Z,10
2019-04-03T04:02:45.751Z,10
2019-04-03T04:03:48.256Z,10
2019-04-03T04:04:50.968Z,10.1
2019-04-03T04:05:58.170Z,10.1
2019-04-03T04:07:06.139Z,10
2019-04-03T04:08:13.506Z,10.1
2019-04-03T04:09:19.467Z,10.1
2019-04-03T04:10:27.794Z,10.2
2019-04-03T04:11:33.990Z,10.3
2019-04-03T04:12:43.289Z,10.3
2019-04-03T04:13:51.306Z,10.4
2019-04-03T04:14:58.623Z,10.4
2019-04-03T04:16:06.539Z,10.4
2019-04-03T04:17:19.867Z,10.4
2019-04-03T04:18:26.070Z,10.4
2019-04-03T04:19:33.474Z,10.5
2019-04-03T04:20:40.769Z,10.4
2019-04-03T04:21:47.370Z,10.5
2019-04-03T04:22:52.888Z,10.5
2019-04-03T04:23:59.099Z,10.5
2019-04-03T04:25:01.954Z,10.5
2019-04-03T04:26:04.806Z,10.7
2019-04-03T04:27:07.420Z,10.6
2019-04-03T04:28:10.826Z,10.6
2019-04-03T04:29:13.342Z,10.6
2019-04-03T04:30:15.551Z,10.6
2019-04-03T04:31:17.861Z,10.6
2019-04-03T04:32:20.768Z,10.8
2019-04-03T04:33:23.233Z,10.7
2019-04-03T04:34:26.095Z,10.7
2019-04-03T04:35:28.701Z,10.7
2019-04-03T04:36:30.725Z,10.8
2019-04-03T04:37:33.229Z,10.7
2019-04-03T04:38:35.497Z,10.8
2019-04-03T04:39:37.714Z,10.8
2019-04-03T04:40:40.593Z,10.8
2019-04-03T04:41:42.821Z,10.8
2019-04-03T04:42:45.071Z,10.7
2019-04-03T04:43:47.778Z,10.7
2019-04-03T04:44:49.987Z,10.7
2019-04-03T04:45:52.113Z,10.6
2019-04-03T04:46:54.549Z,10.7
2019-04-03T04:47:57.273Z,10.7
2019-04-03T04:48:59.578Z,10.7
2019-04-03T04:50:02.473Z,10.7
2019-04-03T04:51:04.913Z,10.7
2019-04-03T04:52:07.293Z,10.7
2019-04-03T04:53:09.878Z,10.7
2019-04-03T04:54:12.096Z,10.7
2019-04-03T04:55:14.635Z,10.6
2019-04-03T04:56:16.868Z,10.7
2019-04-03T04:57:19.171Z,10.7
2019-04-03T04:58:21.757Z,10.7
2019-04-03T04:59:24.124Z,10.7
2019-04-03T05:00:29.140Z,10.5
2019-04-03T05:01:32.714Z,10.6
2019-04-03T05:02:34.770Z,10.6
2019-04-03T05:03:36.832Z,10.7
2019-04-03T05:04:38.865Z,10.7
2019-04-03T05:05:41.593Z,10.6
2019-04-03T05:06:43.789Z,10.4
2019-04-03T05:07:46.239Z,10.3
2019-04-03T05:08:48.275Z,10.4
2019-04-03T05:09:51.110Z,10.4
2019-04-03T05:10:53.301Z,10.4
2019-04-03T05:11:55.415Z,10.4
2019-04-03T05:12:57.918Z,10.3
2019-04-03T05:14:00.317Z,10.2
2019-04-03T05:15:03.448Z,10.1
2019-04-03T05:16:05.937Z,10.2
2019-04-03T05:17:08.356Z,10.1
2019-04-03T05:18:10.515Z,10.1
2019-04-03T05:19:20.656Z,10.2
2019-04-03T05:20:23.086Z,10.2
2019-04-03T05:21:25.353Z,10.3
2019-04-03T05:22:27.522Z,10.3
2019-04-03T05:23:29.736Z,10.3
2019-04-03T05:24:32.111Z,10.3
2019-04-03T05:25:34.701Z,10.2
2019-04-03T05:26:37.271Z,10.3
2019-04-03T05:27:39.385Z,10.3
2019-04-03T05:28:58.467Z,10.2
2019-04-03T05:30:00.788Z,10.2
2019-04-03T05:31:03.078Z,10.2
2019-04-03T05:32:05.993Z,10.1
2019-04-03T05:33:12.821Z,10.1
2019-04-03T05:34:15.131Z,10
2019-04-03T05:35:17.483Z,9.9
2019-04-03T05:36:20.228Z,10
2019-04-03T05:37:22.675Z,9.9
2019-04-03T05:38:25.035Z,10
2019-04-03T05:39:27.211Z,10.1
2019-04-03T05:40:29.348Z,10.1
2019-04-03T05:41:31.666Z,10.1
2019-04-03T05:42:33.836Z,10.1
2019-04-03T05:43:36.350Z,10.2
2019-04-03T05:44:39.765Z,10.2
2019-04-03T05:45:43.266Z,10.2
2019-04-03T05:46:45.515Z,10.2
2019-04-03T05:47:47.785Z,10.2
2019-04-03T05:48:50.472Z,10.3
2019-04-03T05:49:57.321Z,10.3
2019-04-03T05:50:59.825Z,10.2
2019-04-03T05:52:05.825Z,10.3
2019-04-03T05:53:08.260Z,10.3
2019-04-03T05:54:13.553Z,10.4
2019-04-03T05:55:17.287Z,10.4
2019-04-03T05:56:20.374Z,10.3
2019-04-03T05:57:22.663Z,10.4
2019-04-03T05:58:25.511Z,10.4
2019-04-03T05:59:27.960Z,10.4
2019-04-03T06:00:30.543Z,10.4
2019-04-03T06:01:32.768Z,10.3
2019-04-03T06:02:35.585Z,10.3
2019-04-03T06:03:46.744Z,10.3
2019-04-03T06:04:49.742Z,10.3
2019-04-03T06:05:52.384Z,10.4
2019-04-03T06:06:54.785Z,10.3
2019-04-03T06:07:56.833Z,10.4
2019-04-03T06:08:59.524Z,10.4
2019-04-03T06:10:02.046Z,10.4
2019-04-03T06:11:11.086Z,10.4
2019-04-03T06:12:20.198Z,10.4
2019-04-03T06:13:22.466Z,10.4
2019-04-03T06:14:26.053Z,10.6
2019-04-03T06:15:28.349Z,10.6
2019-04-03T06:16:30.537Z,10.4
2019-04-03T06:17:33.506Z,10.5
2019-04-03T06:18:35.861Z,10.4
2019-04-03T06:19:41.308Z,10.6
2019-04-03T06:20:45.069Z,10.6
2019-04-03T06:21:48.041Z,10.8
2019-04-03T06:22:52.309Z,10.8
2019-04-03T06:23:55.010Z,10.6
2019-04-03T06:24:58.106Z,10.6
2019-04-03T06:26:04.446Z,10.6
2019-04-03T06:27:10.932Z,10.8
2019-04-03T06:28:15.512Z,10.8
2019-04-03T06:29:20.670Z,10.8
2019-04-03T06:30:27.251Z,10.8
2019-04-03T06:31:30.010Z,10.8
2019-04-03T06:32:32.443Z,10.8
2019-04-03T06:33:38.049Z,10.9
2019-04-03T06:34:45.373Z,10.7
2019-04-03T06:35:48.071Z,11
2019-04-03T06:36:52.885Z,11
2019-04-03T06:37:55.147Z,11
2019-04-03T06:38:58.568Z,11
2019-04-03T06:40:05.330Z,11
2019-04-03T06:41:10.629Z,11
2019-04-03T06:42:15.739Z,11
2019-04-03T06:43:18.935Z,11
2019-04-03T06:44:24.209Z,10.8
2019-04-03T06:45:28.202Z,11
2019-04-03T06:46:32.192Z,11
2019-04-03T06:47:34.265Z,11.1
2019-04-03T06:48:38.323Z,11.1
2019-04-03T06:49:42.445Z,11
2019-04-03T06:50:45.290Z,11.1
2019-04-03T06:51:50.983Z,11.1
2019-04-03T06:52:54.776Z,11.2
2019-04-03T06:54:01.069Z,11.2
2019-04-03T06:55:05.424Z,11.3
2019-04-03T06:56:10.691Z,11.3
2019-04-03T06:57:15.596Z,11.3
2019-04-03T06:58:17.879Z,11.3
2019-04-03T06:59:20.380Z,11.3
2019-04-03T07:00:22.968Z,11.2
2019-04-03T07:01:25.345Z,11.4
2019-04-03T07:02:33.559Z,11.5
2019-04-03T07:03:36.364Z,11.5
2019-04-03T07:04:40.132Z,11.4
2019-04-03T07:05:43.529Z,11.6
2019-04-03T07:06:46.749Z,11.5
2019-04-03T07:07:48.947Z,11.5
2019-04-03T07:08:50.993Z,11.6
2019-04-03T07:09:53.464Z,11.6
2019-04-03T07:10:56.902Z,11.7
2019-04-03T07:11:58.953Z,11.7
2019-04-03T07:13:00.999Z,11.8
2019-04-03T07:14:03.880Z,11.7
2019-04-03T07:15:05.927Z,11.8
2019-04-03T07:16:08.319Z,11.6
2019-04-03T07:17:10.953Z,11.7
2019-04-03T07:18:13.307Z,11.9
2019-04-03T07:19:15.928Z,11.9
2019-04-03T07:20:23.381Z,11.9
2019-04-03T07:21:29.137Z,12
2019-04-03T07:22:31.393Z,12
2019-04-03T07:23:33.882Z,12
2019-04-03T07:24:36.239Z,11.9
2019-04-03T07:25:38.540Z,12
2019-04-03T07:26:41.266Z,11.9
2019-04-03T07:27:44.100Z,12
2019-04-03T07:28:46.368Z,12
2019-04-03T07:29:51.720Z,12
2019-04-03T07:30:55.546Z,12
2019-04-03T07:31:58.634Z,12
2019-04-03T07:33:01.657Z,12.1
2019-04-03T07:34:05.173Z,12.1
2019-04-03T07:35:11.506Z,12.1
2019-04-03T07:36:14.210Z,12.1
2019-04-03T07:37:21.654Z,12.2
2019-04-03T07:38:24.610Z,12.2
2019-04-03T07:39:27.208Z,12.3
2019-04-03T07:40:29.913Z,12.1
2019-04-03T07:41:31.962Z,12.2
2019-04-03T07:42:34.497Z,12.5
2019-04-03T07:43:36.969Z,12.4
2019-04-03T07:44:39.364Z,12.3
2019-04-03T07:45:44.947Z,12.4
2019-04-03T07:46:47.213Z,12.6
2019-04-03T07:47:49.473Z,12.5
2019-04-03T07:48:51.846Z,12.5
2019-04-03T07:49:54.257Z,12.7
2019-04-03T07:50:56.876Z,12.8
2019-04-03T07:51:59.514Z,12.9
2019-04-03T07:53:01.818Z,12.8
2019-04-03T07:54:06.290Z,12.7
2019-04-03T07:55:08.933Z,12.6
2019-04-03T07:56:11.355Z,12.8
2019-04-03T07:57:17.486Z,12.9
2019-04-03T07:58:20.446Z,13
2019-04-03T07:59:22.836Z,12.9
2019-04-03T08:00:25.094Z,13.1
2019-04-03T08:01:27.695Z,13
2019-04-03T08:02:29.932Z,13.1
2019-04-03T08:03:32.097Z,13.1
2019-04-03T08:04:34.523Z,13.1
2019-04-03T08:05:37.041Z,13.1
2019-04-03T08:06:39.395Z,13.2
2019-04-03T08:07:41.868Z,13.2
2019-04-03T08:08:44.333Z,13.1
2019-04-03T08:09:47.194Z,13.2
2019-04-03T08:10:49.602Z,13.1
2019-04-03T08:11:52.049Z,13.3
2019-04-03T08:12:54.341Z,13.3
2019-04-03T08:13:57.203Z,13.2
2019-04-03T08:14:59.780Z,13.2
2019-04-03T08:16:02.121Z,13.3
2019-04-03T08:17:04.657Z,13.3
2019-04-03T08:18:07.586Z,13.3
2019-04-03T08:19:09.991Z,13.4
2019-04-03T08:20:12.517Z,13.2
2019-04-03T08:21:15.091Z,13.4
2019-04-03T08:22:17.619Z,13.2
2019-04-03T08:23:20.915Z,13.1
2019-04-03T08:24:23.774Z,13.2
2019-04-03T08:25:25.843Z,13.3
2019-04-03T08:26:28.875Z,13.4
2019-04-03T08:27:31.080Z,13.5
2019-04-03T08:28:33.651Z,13.4
2019-04-03T08:29:40.021Z,13.5
2019-04-03T08:30:42.186Z,13.4
2019-04-03T08:31:49.794Z,13.3
2019-04-03T08:32:52.119Z,13.5
2019-04-03T08:33:54.473Z,13.5
2019-04-03T08:34:57.988Z,13.5
2019-04-03T08:36:00.373Z,13.4
2019-04-03T08:37:03.361Z,13.4
2019-04-03T08:38:06.044Z,13.4
2019-04-03T08:39:09.011Z,13.5
2019-04-03T08:40:11.235Z,13.7
2019-04-03T08:41:14.297Z,13.7
2019-04-03T08:42:17.013Z,13.8
2019-04-03T08:43:19.054Z,13.9
2019-04-03T08:44:21.952Z,13.9
2019-04-03T08:45:24.909Z,13.8
2019-04-03T08:46:27.642Z,13.7
2019-04-03T08:47:30.288Z,13.9
2019-04-03T08:48:32.850Z,13.9
2019-04-03T08:49:35.177Z,13.9
2019-04-03T08:50:37.918Z,13.9
2019-04-03T08:51:40.175Z,13.9
2019-04-03T08:52:42.450Z,14.1
2019-04-03T08:53:44.777Z,14.1
2019-04-03T08:54:47.498Z,14
2019-04-03T08:55:49.832Z,14
2019-04-03T08:56:52.311Z,14.2
2019-04-03T08:57:55.195Z,14.1
2019-04-03T08:58:59.662Z,14.2
2019-04-03T09:00:03.215Z,14.3
2019-04-03T09:01:06.369Z,14.3
2019-04-03T09:02:14.491Z,14.2
2019-04-03T09:03:17.121Z,14.2
2019-04-03T09:04:20.405Z,14.1
2019-04-03T09:05:22.763Z,14.1
2019-04-03T09:06:25.250Z,14
2019-04-03T09:07:27.821Z,14.1
2019-04-03T09:08:29.872Z,14.2
2019-04-03T09:09:36.552Z,14.3
2019-04-03T09:10:39.460Z,14.1
2019-04-03T09:11:42.339Z,14.2
2019-04-03T09:12:44.855Z,14.3
2019-04-03T09:13:47.540Z,14.2
2019-04-03T09:14:50.002Z,14.2
2019-04-03T09:15:52.409Z,14.1
2019-04-03T09:16:54.627Z,14.3
2019-04-03T09:17:57.336Z,14.4
2019-04-03T09:18:59.629Z,14.5
2019-04-03T09:20:02.473Z,14.3
2019-04-03T09:21:05.407Z,14.5
2019-04-03T09:22:07.922Z,14.8
2019-04-03T09:23:10.183Z,14.9
2019-04-03T09:24:12.781Z,15.2
2019-04-03T09:25:15.384Z,15.2
2019-04-03T09:26:17.741Z,15.3
2019-04-03T09:27:20.382Z,15.1
2019-04-03T09:28:23.119Z,15.3
2019-04-03T09:29:25.498Z,15.2
2019-04-03T09:30:27.993Z,15.3
2019-04-03T09:31:31.414Z,15.4
2019-04-03T09:32:37.924Z,15.5
2019-04-03T09:33:40.621Z,15.3
2019-04-03T09:34:43.593Z,15.6
2019-04-03T09:35:45.955Z,15.6
2019-04-03T09:36:48.772Z,15.6
2019-04-03T09:37:51.218Z,15.7
2019-04-03T09:38:53.263Z,15.9
2019-04-03T09:39:55.959Z,16.1
2019-04-03T09:40:58.892Z,16.2
2019-04-03T09:42:01.507Z,16.2
2019-04-03T09:43:03.951Z,16.3
2019-04-03T09:44:06.286Z,16.3
2019-04-03T09:45:09.448Z,16.2
2019-04-03T09:46:11.943Z,16.4
2019-04-03T09:47:15.004Z,16.4
2019-04-03T09:48:17.646Z,16.5
2019-04-03T09:49:19.976Z,16.5
2019-04-03T09:50:24.162Z,16.4
2019-04-03T09:51:26.488Z,16.2
2019-04-03T09:52:55.383Z,16.4
2019-04-03T09:53:59.626Z,16.5
2019-04-03T09:55:02.783Z,16.7
2019-04-03T09:56:09.675Z,17
2019-04-03T09:57:12.787Z,17
2019-04-03T09:58:15.236Z,17.2
2019-04-03T09:59:17.919Z,16.9
2019-04-03T10:00:20.814Z,17.1
2019-04-03T10:01:23.122Z,17.2
2019-04-03T10:02:25.701Z,17.2
2019-04-03T10:03:32.261Z,17.2
2019-04-03T10:04:34.971Z,17.1
2019-04-03T10:05:37.477Z,17.1
2019-04-03T10:06:39.833Z,17.4
2019-04-03T10:07:41.946Z,17.3
2019-04-03T10:08:44.165Z,17.6
2019-04-03T10:09:46.544Z,17.6
2019-04-03T10:10:49.685Z,17.9
2019-04-03T10:11:53.631Z,17.7
2019-04-03T10:12:56.521Z,17.9
2019-04-03T10:13:59.754Z,17.9
2019-04-03T10:15:02.703Z,17.8
2019-04-03T10:16:06.370Z,18
2019-04-03T10:17:09.635Z,17.9
2019-04-03T10:18:12.210Z,18.1
2019-04-03T10:19:16.211Z,17.9
2019-04-03T10:20:21.191Z,17.8
2019-04-03T10:21:23.587Z,17.7
2019-04-03T10:22:26.756Z,17.7
2019-04-03T10:23:30.381Z,18
2019-04-03T10:24:33.875Z,18.2
2019-04-03T10:25:39.420Z,18.3
2019-04-03T10:26:42.641Z,18.5
2019-04-03T10:27:45.167Z,18.7
2019-04-03T10:28:49.706Z,18.5
2019-04-03T10:29:56.713Z,18.4
2019-04-03T10:30:59.496Z,18.5
2019-04-03T10:32:01.927Z,18.2
2019-04-03T10:33:04.384Z,18.5
2019-04-03T10:34:06.698Z,18.4
2019-04-03T10:35:10.095Z,18.4
2019-04-03T10:36:17.184Z,18.2
2019-04-03T10:37:21.118Z,17.9
2019-04-03T10:38:23.182Z,18.1
2019-04-03T10:39:25.746Z,18.2
2019-04-03T10:40:28.717Z,17.6
2019-04-03T10:41:31.501Z,17.9
2019-04-03T10:42:34.696Z,17.8
2019-04-03T10:43:39.099Z,17.8
2019-04-03T10:44:41.691Z,17.8
2019-04-03T10:45:44.455Z,18
2019-04-03T10:46:50.913Z,17.9
2019-04-03T10:47:58.354Z,17.7
2019-04-03T10:49:02.882Z,17.7
2019-04-03T10:50:07.466Z,18
2019-04-03T10:51:11.317Z,17.9
2019-04-03T10:52:15.993Z,17.9
2019-04-03T10:53:22.252Z,17.7
2019-04-03T10:54:26.624Z,18
2019-04-03T10:55:30.847Z,17.9
2019-04-03T10:56:34.476Z,17.5
2019-04-03T10:57:37.378Z,17.7
2019-04-03T10:58:45.257Z,17.5
2019-04-03T10:59:57.477Z,17.5
2019-04-03T11:01:01.556Z,17.2
2019-04-03T11:02:05.191Z,17.3
2019-04-03T11:03:07.614Z,17.3
2019-04-03T11:04:10.318Z,17.6
2019-04-03T11:05:13.463Z,17.6
2019-04-03T11:06:16.106Z,17.5
2019-04-03T11:07:18.141Z,17.4
2019-04-03T11:08:20.454Z,17.5
2019-04-03T11:09:22.764Z,17.4
2019-04-03T11:10:26.858Z,17.3
2019-04-03T11:11:32.255Z,17.5
2019-04-03T11:12:34.709Z,17.5
2019-04-03T11:13:38.104Z,17.3
2019-04-03T11:14:41.738Z,17.1
2019-04-03T11:15:46.309Z,17.1
2019-04-03T11:16:49.598Z,16.7
2019-04-03T11:17:51.917Z,16.9
2019-04-03T11:19:08.421Z,17
2019-04-03T11:20:13.111Z,17
2019-04-03T11:21:15.716Z,17
2019-04-03T11:22:18.377Z,17
2019-04-03T11:23:46.416Z,17.1
2019-04-03T11:24:49.978Z,17.1
2019-04-03T11:25:52.970Z,17.1
2019-04-03T11:26:56.270Z,17.2
2019-04-03T11:27:58.749Z,17
2019-04-03T11:29:01.683Z,17.1
2019-04-03T11:30:04.317Z,17.2
2019-04-03T11:31:07.420Z,17
2019-04-03T11:32:11.425Z,16.9
2019-04-03T11:33:16.151Z,17
2019-04-03T11:34:20.540Z,16.9
2019-04-03T11:35:23.983Z,17
2019-04-03T11:36:31.882Z,16.9
2019-04-03T11:37:35.121Z,17.3
2019-04-03T11:38:37.701Z,17.2
2019-04-03T11:39:40.109Z,17.3
2019-04-03T11:40:43.221Z,16.9
2019-04-03T11:41:45.902Z,16.6
2019-04-03T11:42:48.242Z,16.4
2019-04-03T11:43:51.167Z,16.6
2019-04-03T11:44:54.032Z,16.8
2019-04-03T11:45:56.300Z,16.9
2019-04-03T11:46:58.591Z,16.8
2019-04-03T11:48:00.996Z,16.9
2019-04-03T11:49:04.001Z,16.9
2019-04-03T11:50:06.273Z,16.9
2019-04-03T11:51:09.230Z,16.9
2019-04-03T11:52:11.850Z,17.1
2019-04-03T11:53:14.240Z,17.1
2019-04-03T11:54:17.787Z,17.1
2019-04-03T11:55:20.104Z,17.1
2019-04-03T11:56:25.453Z,17
2019-04-03T11:57:30.049Z,17.3
2019-04-03T11:58:33.784Z,17.1
2019-04-03T11:59:37.635Z,17.1
2019-04-03T12:00:40.274Z,17.1
2019-04-03T12:01:42.672Z,17.2
2019-04-03T12:02:46.735Z,17
2019-04-03T12:03:52.910Z,16.7
2019-04-03T12:04:56.538Z,16.9
2019-04-03T12:05:59.265Z,16.7
2019-04-03T12:07:02.036Z,16.8
2019-04-03T12:08:04.464Z,17
2019-04-03T12:09:07.263Z,17.3
2019-04-03T12:10:09.730Z,17.5
2019-04-03T12:11:12.855Z,17.5
2019-04-03T12:12:16.618Z,17.5
2019-04-03T12:13:23.246Z,17.4
2019-04-03T12:14:26.474Z,17.8
2019-04-03T12:15:29.478Z,17.6
2019-04-03T12:16:31.991Z,17.5
2019-04-03T12:17:34.658Z,17.7
2019-04-03T12:18:37.521Z,17.4
2019-04-03T12:19:40.459Z,17.8
2019-04-03T12:20:50.973Z,17.9
2019-04-03T12:22:00.188Z,17.9
2019-04-03T12:23:04.300Z,18
2019-04-03T12:24:07.401Z,17.8
2019-04-03T12:25:09.873Z,18.2
2019-04-03T12:26:13.889Z,18.3
2019-04-03T12:27:16.662Z,18.5
2019-04-03T12:28:21.217Z,18.4
2019-04-03T12:29:25.265Z,18.1
2019-04-03T12:30:30.401Z,18.3
2019-04-03T12:31:32.874Z,18.1
2019-04-03T12:32:50.841Z,18.2
2019-04-03T12:34:07.962Z,18.1
2019-04-03T12:35:12.829Z,18
2019-04-03T12:36:16.311Z,17.9
2019-04-03T12:37:25.501Z,17.8
2019-04-03T12:38:28.375Z,17.8
2019-04-03T12:39:31.402Z,17.9
2019-04-03T12:40:34.974Z,17.8
2019-04-03T12:41:39.206Z,17.8
2019-04-03T12:42:42.441Z,17.8
2019-04-03T12:43:45.227Z,17.6
2019-04-03T12:44:48.053Z,17.8
2019-04-03T12:45:50.727Z,17.7
2019-04-03T12:46:53.098Z,17.5
2019-04-03T12:47:56.085Z,17.5
2019-04-03T12:48:59.169Z,17.5
2019-04-03T12:50:02.467Z,17.3
2019-04-03T12:51:05.861Z,17.1
2019-04-03T12:52:08.701Z,17.2
2019-04-03T12:53:11.931Z,17
2019-04-03T12:54:15.980Z,17
2019-04-03T12:55:27.144Z,17
2019-04-03T12:56:32.593Z,17.1
2019-04-03T12:57:40.457Z,17
2019-04-03T12:58:43.164Z,17
2019-04-03T12:59:49.048Z,16.9
2019-04-03T13:00:52.218Z,16.9
2019-04-03T13:01:55.029Z,16.9
2019-04-03T13:02:58.216Z,17.1
2019-04-03T13:04:00.790Z,17.1
2019-04-03T13:05:08.555Z,17.2
2019-04-03T13:06:12.162Z,17.3
2019-04-03T13:07:16.587Z,17.2
2019-04-03T13:08:22.986Z,17.2
2019-04-03T13:09:26.505Z,17.3
2019-04-03T13:10:50.111Z,17.5
2019-04-03T13:11:52.589Z,17.8
2019-04-03T13:12:58.042Z,17.9
2019-04-03T13:14:01.752Z,17.8
2019-04-03T13:15:08.326Z,17.6
2019-04-03T13:16:12.944Z,17.8
2019-04-03T13:17:16.434Z,17.9
2019-04-03T13:18:19.900Z,17.9
2019-04-03T13:19:27.001Z,18
2019-04-03T13:20:30.614Z,17.9
2019-04-03T13:21:33.052Z,18
2019-04-03T13:22:35.719Z,18.1
2019-04-03T13:23:38.113Z,18.2
2019-04-03T13:24:40.657Z,18.2
2019-04-03T13:25:43.519Z,18.3
2019-04-03T13:26:46.459Z,18.3
2019-04-03T13:27:49.950Z,18.3
2019-04-03T13:28:52.532Z,18.3
2019-04-03T13:29:54.875Z,18.4
2019-04-03T13:30:57.420Z,18.5
2019-04-03T13:31:59.861Z,18.3
2019-04-03T13:33:08.986Z,18.1
2019-04-03T13:34:12.739Z,18.2
2019-04-03T13:35:17.969Z,18.4
2019-04-03T13:36:25.602Z,18.1
2019-04-03T13:37:28.592Z,18.4
2019-04-03T13:38:31.828Z,18.1
2019-04-03T13:39:36.570Z,18
2019-04-03T13:40:40.597Z,17.7
2019-04-03T13:41:44.959Z,17.7
2019-04-03T13:42:51.210Z,17.5
2019-04-03T13:43:56.067Z,17
2019-04-03T13:45:01.758Z,17
2019-04-03T13:46:06.893Z,17.3
2019-04-03T13:47:11.788Z,16.8
2019-04-03T13:48:15.854Z,16.9
2019-04-03T13:49:20.469Z,16.9
2019-04-03T13:50:25.151Z,17.1
2019-04-03T13:51:30.010Z,17.3
2019-04-03T13:52:51.551Z,17.5
2019-04-03T13:53:56.460Z,17.5
2019-04-03T13:55:01.244Z,17.3
2019-04-03T13:56:12.815Z,17.5
2019-04-03T13:57:18.277Z,17.1
2019-04-03T13:58:26.848Z,17.3
2019-04-03T13:59:30.518Z,17.2
2019-04-03T14:00:35.233Z,17.1
2019-04-03T14:01:42.419Z,17.2
2019-04-03T14:02:48.365Z,17.1
2019-04-03T14:03:53.010Z,17.1
2019-04-03T14:04:58.959Z,17
2019-04-03T14:06:06.381Z,16.8
2019-04-03T14:07:11.708Z,16.8
2019-04-03T14:08:15.501Z,16.5
2019-04-03T14:09:19.987Z,16.7
2019-04-03T14:10:28.577Z,16.7
2019-04-03T14:11:33.659Z,16.8
2019-04-03T14:12:46.641Z,16.8
2019-04-03T14:13:49.792Z,16.7
2019-04-03T14:14:52.753Z,16.7
2019-04-03T14:15:58.484Z,16.7
2019-04-03T14:17:00.853Z,16.7
2019-04-03T14:18:03.716Z,16.5
2019-04-03T14:19:06.288Z,16.3
2019-04-03T14:20:08.882Z,16.4
2019-04-03T14:21:11.776Z,16.4
2019-04-03T14:22:14.734Z,16.1
2019-04-03T14:23:17.473Z,16.3
2019-04-03T14:24:20.674Z,16.6